Time;durP1;ratioP1;P1;durP2;ratioP2;P2;SDS_P1;SDS_P2;PMS_P1;PMS_P2;Temp;Humidity;BMP_temperature;BMP_pressure;BME280_temperature;BME280_humidity;BME280_pressure;Samples;Min_cycle;Max_cycle;Signal;HPM_P1;HPM_P2
2022/05/08 00:00:12;;;;;;;20.63;4.50;;;9.40;99.90;;;;;;4952938;28;20447;-64
2022/05/08 00:02:40;;;;;;;17.42;4.80;;;9.30;99.90;;;;;;4953006;28;20050;-65
2022/05/08 00:05:09;;;;;;;24.35;4.95;;;9.30;99.90;;;;;;4946013;28;20416;-64
2022/05/08 00:07:34;;;;;;;18.75;4.70;;;9.20;99.90;;;;;;4945053;28;20058;-65
2022/05/08 00:10:00;;;;;;;19.10;4.53;;;9.20;99.90;;;;;;4952848;28;20486;-65
2022/05/08 00:12:25;;;;;;;17.33;4.28;;;9.10;99.90;;;;;;4952473;29;20520;-65
2022/05/08 00:14:51;;;;;;;22.73;5.05;;;9.00;99.90;;;;;;4948504;29;20042;-65
2022/05/08 00:17:18;;;;;;;15.25;4.50;;;9.00;99.90;;;;;;4952230;28;20462;-65
2022/05/08 00:19:47;;;;;;;18.60;4.18;;;8.90;99.90;;;;;;4952778;29;20047;-65
2022/05/08 00:22:13;;;;;;;22.10;4.40;;;8.80;99.90;;;;;;4949339;28;20434;-65
2022/05/08 00:24:39;;;;;;;25.15;5.05;;;8.80;99.90;;;;;;4949566;28;20090;-65
2022/05/08 00:27:05;;;;;;;20.35;4.50;;;8.70;99.90;;;;;;4952867;28;20047;-65
2022/05/08 00:29:31;;;;;;;21.17;4.57;;;8.70;99.90;;;;;;4947447;28;20127;-65
2022/05/08 00:31:57;;;;;;;23.30;4.90;;;8.60;99.90;;;;;;4937127;29;20194;-65
2022/05/08 00:34:23;;;;;;;25.02;4.70;;;8.50;99.90;;;;;;4949780;28;20041;-65
2022/05/08 00:36:49;;;;;;;21.95;5.18;;;8.50;99.90;;;;;;4951234;29;20074;-65
2022/05/08 00:39:18;;;;;;;21.45;5.13;;;8.40;99.90;;;;;;4937366;29;20046;-65
2022/05/08 00:41:45;;;;;;;22.80;5.15;;;8.40;99.90;;;;;;4953484;29;20039;-65
2022/05/08 00:44:10;;;;;;;16.60;4.85;;;8.40;99.90;;;;;;4955799;28;20130;-65
2022/05/08 00:46:36;;;;;;;18.45;5.38;;;8.30;99.90;;;;;;4952176;28;20130;-65
2022/05/08 00:49:01;;;;;;;18.45;5.30;;;8.30;99.90;;;;;;4947053;28;20118;-65
2022/05/08 00:51:28;;;;;;;27.00;6.10;;;8.30;99.90;;;;;;4955987;28;20087;-65
2022/05/08 00:53:56;;;;;;;23.95;5.70;;;8.20;99.90;;;;;;4951017;28;20040;-65
2022/05/08 00:56:22;;;;;;;17.02;5.32;;;8.30;99.90;;;;;;4943740;29;20394;-65
2022/05/08 00:58:50;;;;;;;21.23;5.95;;;8.20;99.90;;;;;;4954118;29;20053;-65
2022/05/08 01:01:17;;;;;;;23.25;5.57;;;8.20;99.90;;;;;;4955558;29;20047;-65
2022/05/08 01:03:43;;;;;;;23.73;5.78;;;8.20;99.90;;;;;;4952657;29;20035;-65
2022/05/08 01:06:18;;;;;;;24.00;5.95;;;8.20;99.90;;;;;;4942491;29;20110;-65
2022/05/08 01:08:46;;;;;;;18.48;4.93;;;8.10;99.90;;;;;;4955519;29;20406;-65
2022/05/08 01:11:12;;;;;;;23.17;5.90;;;8.10;99.90;;;;;;4945425;28;20047;-65
2022/05/08 01:13:39;;;;;;;20.80;5.57;;;8.10;99.90;;;;;;4948813;29;20043;-65
2022/05/08 01:16:13;;;;;;;22.48;5.70;;;8.00;99.90;;;;;;4955537;29;20449;-65
2022/05/08 01:18:39;;;;;;;27.80;6.78;;;8.00;99.90;;;;;;4949422;28;20039;-65
2022/05/08 01:21:08;;;;;;;21.77;5.70;;;7.90;99.90;;;;;;4948522;28;20039;-65
2022/05/08 01:23:34;;;;;;;23.17;5.93;;;7.80;99.90;;;;;;4954136;28;20074;-64
2022/05/08 01:25:59;;;;;;;21.40;5.57;;;7.70;99.90;;;;;;4955460;28;20075;-65
2022/05/08 01:28:26;;;;;;;21.55;5.68;;;7.70;99.90;;;;;;4947737;28;20035;-64
2022/05/08 01:30:53;;;;;;;17.80;5.55;;;7.60;99.90;;;;;;4949582;28;20035;-64
2022/05/08 01:33:19;;;;;;;20.60;6.13;;;7.60;99.90;;;;;;4955215;29;20102;-64
2022/05/08 01:35:46;;;;;;;26.00;6.57;;;7.50;99.90;;;;;;4955382;28;20537;-64
2022/05/08 01:38:14;;;;;;;22.65;6.28;;;7.40;99.90;;;;;;4945011;28;20082;-64
2022/05/08 01:40:40;;;;;;;24.35;6.85;;;7.30;99.90;;;;;;4960352;23;20444;-64
2022/05/08 01:43:06;;;;;;;26.63;6.18;;;7.30;99.90;;;;;;4954963;28;20093;-64
2022/05/08 01:45:33;;;;;;;26.15;6.45;;;7.30;99.90;;;;;;4946563;28;20494;-64
2022/05/08 01:50:43;;;;;;;25.35;6.43;;;7.20;99.90;;;;;;4954898;28;20422;-64
2022/05/08 01:53:08;;;;;;;25.40;6.90;;;7.10;99.90;;;;;;4952935;28;20039;-64
2022/05/08 01:55:35;;;;;;;16.35;4.90;;;7.10;99.90;;;;;;4942576;29;20128;-64
2022/05/08 01:58:01;;;;;;;15.13;5.57;;;6.90;99.90;;;;;;4952886;28;20043;-64
2022/05/08 02:00:28;;;;;;;11.40;4.05;;;6.90;99.90;;;;;;4949632;28;20051;-64
2022/05/08 02:02:58;;;;;;;16.55;5.20;;;6.70;99.90;;;;;;4943083;29;20095;-64
2022/05/08 02:05:24;;;;;;;18.42;5.57;;;6.70;99.90;;;;;;4954406;28;20028;-64
2022/05/08 02:07:50;;;;;;;17.80;6.18;;;6.60;99.90;;;;;;4954690;28;20047;-64
2022/05/08 02:10:17;;;;;;;20.13;5.47;;;6.60;99.90;;;;;;4951720;28;20048;-64
2022/05/08 02:12:44;;;;;;;19.73;5.53;;;6.50;99.90;;;;;;4941074;28;20039;-64
2022/05/08 02:15:12;;;;;;;17.17;5.32;;;6.40;99.90;;;;;;4954481;28;20031;-64
2022/05/08 02:17:38;;;;;;;23.35;5.75;;;6.40;99.90;;;;;;4948683;29;20061;-64
2022/05/08 02:20:06;;;;;;;14.15;5.13;;;6.30;99.90;;;;;;4948960;28;20035;-64
2022/05/08 02:22:36;;;;;;;17.70;5.75;;;6.20;99.90;;;;;;4953700;28;20043;-64
2022/05/08 02:25:03;;;;;;;16.98;4.55;;;6.10;99.90;;;;;;4953309;29;20473;-64
2022/05/08 02:27:41;;;;;;;13.88;4.72;;;6.00;99.90;;;;;;4950627;28;20035;-64
2022/05/08 02:30:09;;;;;;;114.05;6.65;;;6.10;99.90;;;;;;4948277;29;20046;-64
2022/05/08 02:32:34;;;;;;;35.25;3.75;;;6.10;99.90;;;;;;4952800;29;20082;-64
2022/05/08 02:35:00;;;;;;;47.75;4.32;;;6.20;99.90;;;;;;4943515;28;20089;-64
2022/05/08 02:37:26;;;;;;;41.72;6.20;;;6.20;99.90;;;;;;4952759;29;20042;-64
2022/05/08 02:39:52;;;;;;;19.15;5.70;;;6.20;99.90;;;;;;4953691;28;20406;-64
2022/05/08 02:42:18;;;;;;;19.40;5.70;;;6.10;99.90;;;;;;4952963;28;20051;-64
2022/05/08 02:44:43;;;;;;;20.88;6.35;;;6.10;99.90;;;;;;4942181;28;20123;-64
2022/05/08 02:47:09;;;;;;;20.63;6.35;;;6.10;99.90;;;;;;4952266;28;20058;-64
2022/05/08 02:49:35;;;;;;;21.50;6.28;;;6.10;99.90;;;;;;4953579;28;20039;-64
2022/05/08 02:52:00;;;;;;;25.33;6.05;;;6.20;99.90;;;;;;4942010;28;20042;-64
2022/05/08 02:54:26;;;;;;;18.98;5.80;;;6.10;99.90;;;;;;4950844;28;20043;-64
2022/05/08 02:59:35;;;;;;;60.13;4.15;;;6.10;99.90;;;;;;4953878;28;20425;-64
2022/05/08 03:02:01;;;;;;;7.97;2.22;;;6.00;99.90;;;;;;4942218;28;20036;-64
2022/05/08 03:04:26;;;;;;;13.45;4.63;;;6.00;99.90;;;;;;4948250;28;20527;-64
2022/05/08 03:06:52;;;;;;;16.63;5.38;;;6.00;99.90;;;;;;4951235;28;20424;-64
2022/05/08 03:09:17;;;;;;;20.90;6.38;;;5.90;99.90;;;;;;4938911;29;20693;-64
2022/05/08 03:11:43;;;;;;;53.38;5.63;;;5.80;99.90;;;;;;4950573;28;20043;-64
2022/05/08 03:14:09;;;;;;;20.83;6.13;;;5.80;99.90;;;;;;4952910;28;20039;-64
2022/05/08 03:16:35;;;;;;;22.73;6.20;;;5.80;99.90;;;;;;4950493;28;20085;-64
2022/05/08 03:19:01;;;;;;;44.30;5.38;;;5.70;99.90;;;;;;4951883;29;20039;-64
2022/05/08 03:21:27;;;;;;;15.05;4.38;;;5.70;99.90;;;;;;4953207;28;20047;-64
2022/05/08 03:23:53;;;;;;;20.58;7.40;;;5.70;99.90;;;;;;4946029;28;20047;-64
2022/05/08 03:26:21;;;;;;;18.30;6.35;;;5.70;99.90;;;;;;4944940;29;20062;-64
2022/05/08 03:28:47;;;;;;;19.95;6.70;;;5.70;99.90;;;;;;4952656;28;20098;-64
2022/05/08 03:31:13;;;;;;;17.80;6.03;;;5.70;99.90;;;;;;4941181;28;20036;-64
2022/05/08 03:33:39;;;;;;;28.98;6.10;;;5.70;99.90;;;;;;4945894;29;20496;-64
2022/05/08 03:36:06;;;;;;;105.90;4.75;;;5.70;99.90;;;;;;4953188;28;20090;-64
2022/05/08 03:38:33;;;;;;;85.53;5.10;;;5.70;99.90;;;;;;4953648;29;20039;-64
2022/05/08 03:41:00;;;;;;;72.93;4.07;;;5.60;99.90;;;;;;4938846;28;20401;-64
2022/05/08 03:43:25;;;;;;;141.27;6.35;;;5.50;99.90;;;;;;4945551;29;20027;-64
2022/05/08 03:45:51;;;;;;;285.52;8.95;;;5.40;99.90;;;;;;4952566;29;20039;-64
2022/05/08 03:48:17;;;;;;;53.10;5.65;;;5.30;99.90;;;;;;4952070;29;20075;-64
2022/05/08 03:50:43;;;;;;;25.02;4.07;;;5.30;99.90;;;;;;4949780;28;20041;-64
2022/05/08 03:53:09;;;;;;;93.25;6.95;;;5.30;99.90;;;;;;4940887;28;20110;-64
2022/05/08 03:55:35;;;;;;;31.15;4.47;;;5.30;99.90;;;;;;4953018;28;20387;-64
2022/05/08 03:58:00;;;;;;;37.25;5.00;;;5.30;99.90;;;;;;4948947;28;20457;-64
2022/05/08 04:00:26;;;;;;;21.88;5.57;;;5.30;99.90;;;;;;4952275;28;20035;-64
2022/05/08 04:02:52;;;;;;;26.77;5.85;;;5.30;99.90;;;;;;4952741;28;20078;-64
2022/05/08 04:05:17;;;;;;;21.02;6.95;;;5.20;99.90;;;;;;4952520;28;20126;-64
2022/05/08 04:07:44;;;;;;;51.33;6.35;;;5.20;99.90;;;;;;4949594;28;20038;-64
2022/05/08 04:10:10;;;;;;;20.77;6.38;;;5.20;99.90;;;;;;4952713;28;20039;-64
2022/05/08 04:12:36;;;;;;;18.00;6.22;;;5.30;99.90;;;;;;4953170;28;20035;-64
2022/05/08 04:15:04;;;;;;;15.73;6.43;;;5.30;99.90;;;;;;4940085;28;20054;-64
2022/05/08 04:17:31;;;;;;;34.17;4.93;;;5.30;99.90;;;;;;4956287;28;20498;-64
2022/05/08 04:19:57;;;;;;;25.00;6.30;;;5.30;99.90;;;;;;4952605;28;20498;-64
2022/05/08 04:25:08;;;;;;;27.17;5.88;;;5.40;99.90;;;;;;4937517;29;20051;-64
2022/05/08 04:27:35;;;;;;;19.15;4.45;;;5.50;99.90;;;;;;4935065;29;20036;-64
2022/05/08 04:30:02;;;;;;;29.77;5.63;;;5.50;99.90;;;;;;4944065;29;20039;-64
2022/05/08 04:32:27;;;;;;;12.05;5.13;;;5.60;99.90;;;;;;4942849;28;20050;-64
2022/05/08 04:34:53;;;;;;;17.42;5.13;;;5.60;99.90;;;;;;4955005;29;20047;-64
2022/05/08 04:37:18;;;;;;;17.65;5.30;;;5.60;99.90;;;;;;4944810;28;20391;-64
2022/05/08 04:39:44;;;;;;;10.85;4.85;;;5.60;99.90;;;;;;4953549;28;20553;-64
2022/05/08 04:42:10;;;;;;;24.25;6.75;;;5.60;99.90;;;;;;4955996;28;20405;-64
2022/05/08 04:44:35;;;;;;;24.90;6.55;;;5.60;99.90;;;;;;4955935;28;20047;-64
2022/05/08 04:47:01;;;;;;;24.95;6.72;;;5.70;99.90;;;;;;4948736;28;20075;-64
2022/05/08 04:49:27;;;;;;;23.35;6.20;;;5.80;99.90;;;;;;4945633;29;20028;-64
2022/05/08 04:51:53;;;;;;;21.27;7.38;;;5.90;99.90;;;;;;4953705;28;20047;-64
2022/05/08 04:54:18;;;;;;;19.27;6.20;;;6.00;99.90;;;;;;4953804;28;20481;-64
2022/05/08 04:56:44;;;;;;;24.35;7.05;;;6.00;99.90;;;;;;4944666;28;20171;-64
2022/05/08 04:59:09;;;;;;;18.88;6.03;;;6.10;99.90;;;;;;4935324;28;20070;-64
2022/05/08 05:01:35;;;;;;;19.83;5.80;;;6.10;99.90;;;;;;4947532;28;20509;-64
2022/05/08 05:04:01;;;;;;;18.25;6.55;;;6.20;99.90;;;;;;4944527;28;20577;-64
2022/05/08 05:06:26;;;;;;;19.20;6.13;;;6.30;99.90;;;;;;4939750;29;20254;-64
2022/05/08 05:08:52;;;;;;;18.13;5.60;;;6.40;99.90;;;;;;4948755;29;20047;-64
2022/05/08 05:11:17;;;;;;;17.67;5.70;;;6.40;99.90;;;;;;4944761;28;20043;-64
2022/05/08 05:13:43;;;;;;;14.52;6.45;;;6.50;99.90;;;;;;4936449;29;20044;-64
2022/05/08 05:16:08;;;;;;;21.80;6.47;;;6.60;99.90;;;;;;4950856;29;20039;-64
2022/05/08 05:18:34;;;;;;;18.13;6.32;;;6.70;99.90;;;;;;4951647;28;20067;-64
2022/05/08 05:20:59;;;;;;;19.60;6.22;;;6.90;99.90;;;;;;4940217;28;20057;-64
2022/05/08 05:23:25;;;;;;;19.50;6.40;;;6.90;99.90;;;;;;4943461;29;20089;-64
2022/05/08 05:25:51;;;;;;;20.92;6.13;;;7.10;99.90;;;;;;4951129;28;20043;-64
2022/05/08 05:28:17;;;;;;;22.88;6.43;;;7.10;99.90;;;;;;4951850;28;20047;-64
2022/05/08 05:30:43;;;;;;;21.77;5.72;;;7.20;99.90;;;;;;4947127;28;20055;-64
2022/05/08 05:33:10;;;;;;;19.67;5.82;;;7.30;99.90;;;;;;4951845;28;20050;-64
2022/05/08 05:35:39;;;;;;;14.65;5.88;;;7.50;99.90;;;;;;4952335;28;20621;-64
2022/05/08 05:38:05;;;;;;;20.50;6.05;;;7.50;99.90;;;;;;4941905;28;20047;-64
2022/05/08 05:40:31;;;;;;;20.70;6.30;;;7.60;99.90;;;;;;4942387;28;20090;-65
2022/05/08 05:42:57;;;;;;;15.05;5.72;;;7.70;99.90;;;;;;4951295;28;20437;-64
2022/05/08 05:45:24;;;;;;;16.70;5.85;;;7.80;99.90;;;;;;4952442;28;20051;-64
2022/05/08 05:47:50;;;;;;;19.73;6.05;;;7.90;99.90;;;;;;4936288;28;20446;-64
2022/05/08 05:50:25;;;;;;;20.23;5.80;;;8.00;99.90;;;;;;4951325;28;20035;-64
2022/05/08 05:52:52;;;;;;;23.05;5.70;;;8.10;99.90;;;;;;4951332;28;20118;-64
2022/05/08 05:55:18;;;;;;;13.95;5.78;;;8.10;99.90;;;;;;4944655;28;20049;-64
2022/05/08 05:57:45;;;;;;;18.30;6.07;;;8.30;99.90;;;;;;4933010;28;20122;-64
2022/05/08 06:00:20;;;;;;;20.00;6.07;;;8.30;99.90;;;;;;4928163;29;20077;-64
2022/05/08 06:02:47;;;;;;;13.23;5.65;;;8.40;99.90;;;;;;4948177;29;20486;-63
2022/05/08 06:05:14;;;;;;;18.23;6.10;;;8.50;99.90;;;;;;4938626;28;20752;-64
2022/05/08 06:07:42;;;;;;;13.75;6.25;;;8.60;99.90;;;;;;4947869;28;20042;-63
2022/05/08 06:10:09;;;;;;;16.63;5.97;;;8.70;99.90;;;;;;4950788;28;20847;-64
2022/05/08 06:12:35;;;;;;;18.55;5.63;;;8.80;99.90;;;;;;4943298;29;20493;-64
2022/05/08 06:15:01;;;;;;;17.42;5.97;;;9.00;99.90;;;;;;4942514;29;20046;-63
2022/05/08 06:17:27;;;;;;;19.25;5.50;;;9.00;99.90;;;;;;4950415;28;20047;-64
2022/05/08 06:19:53;;;;;;;17.30;4.80;;;9.10;99.90;;;;;;4947345;28;20517;-64
2022/05/08 06:22:19;;;;;;;15.90;4.50;;;9.20;99.90;;;;;;4934873;29;20750;-63
2022/05/08 06:24:45;;;;;;;13.82;4.40;;;9.30;99.90;;;;;;4947455;29;20039;-63
2022/05/08 06:27:10;;;;;;;14.35;4.88;;;9.40;99.90;;;;;;4948226;28;20751;-63
2022/05/08 06:29:36;;;;;;;14.63;4.75;;;9.50;99.90;;;;;;4943989;29;20042;-63
2022/05/08 06:32:02;;;;;;;11.88;4.53;;;9.60;99.90;;;;;;4950245;28;20478;-63
2022/05/08 06:34:29;;;;;;;14.88;4.00;;;9.60;99.90;;;;;;4949881;28;20083;-63
2022/05/08 06:36:54;;;;;;;10.70;3.97;;;9.70;99.90;;;;;;4947829;28;20074;-63
2022/05/08 06:39:21;;;;;;;8.10;3.05;;;9.70;99.90;;;;;;4939906;28;20137;-63
2022/05/08 06:41:47;;;;;;;10.45;3.63;;;9.80;99.90;;;;;;4947960;28;20058;-64
2022/05/08 06:44:15;;;;;;;10.65;3.42;;;9.90;99.90;;;;;;4946389;28;20043;-64
2022/05/08 06:46:41;;;;;;;11.52;4.00;;;9.90;99.90;;;;;;4949603;29;20042;-63
2022/05/08 06:49:07;;;;;;;14.25;4.82;;;10.00;99.90;;;;;;4949943;28;20039;-63
2022/05/08 06:51:36;;;;;;;9.30;3.40;;;10.00;99.90;;;;;;4947223;28;20039;-64
2022/05/08 06:54:02;;;;;;;14.00;3.72;;;10.10;99.90;;;;;;4938750;29;20058;-63
2022/05/08 06:56:31;;;;;;;8.65;3.65;;;10.20;99.90;;;;;;4949845;28;20039;-64
2022/05/08 07:01:43;;;;;;;11.45;3.60;;;10.30;99.90;;;;;;4932278;28;20039;-63
2022/05/08 07:04:11;;;;;;;10.85;3.53;;;10.30;99.90;;;;;;4946790;28;20130;-63
2022/05/08 07:06:38;;;;;;;12.25;3.92;;;10.40;99.90;;;;;;4949928;28;20110;-62
2022/05/08 07:09:05;;;;;;;7.47;3.30;;;10.50;99.90;;;;;;4947603;28;20094;-63
2022/05/08 07:11:30;;;;;;;9.13;3.15;;;10.70;99.90;;;;;;4939072;29;20036;-63
2022/05/08 07:14:00;;;;;;;5.72;2.30;;;10.90;99.90;;;;;;4948291;29;20054;-62
2022/05/08 07:16:26;;;;;;;7.30;3.00;;;11.00;99.90;;;;;;4941023;28;20050;-63
2022/05/08 07:18:52;;;;;;;13.65;2.97;;;11.00;99.90;;;;;;4942539;29;20046;-63
2022/05/08 07:21:21;;;;;;;8.93;3.08;;;11.00;99.90;;;;;;4949717;28;20039;-63
2022/05/08 07:23:47;;;;;;;10.25;3.00;;;10.90;99.90;;;;;;4949091;28;20043;-63
2022/05/08 07:26:13;;;;;;;8.52;3.38;;;11.00;99.90;;;;;;4942765;28;20050;-64
2022/05/08 07:28:39;;;;;;;14.40;3.78;;;11.10;99.90;;;;;;4946158;29;20040;-64
2022/05/08 07:31:05;;;;;;;13.30;3.30;;;11.10;99.90;;;;;;4949731;28;20090;-63
2022/05/08 07:33:34;;;;;;;7.72;2.50;;;11.10;99.90;;;;;;4946524;28;20090;-63
2022/05/08 07:36:19;;;;;;;12.23;3.63;;;11.10;99.90;;;;;;4937736;28;20043;-63
2022/05/08 07:38:47;;;;;;;10.27;3.35;;;11.20;99.90;;;;;;4947281;29;20042;-64
2022/05/08 07:41:15;;;;;;;11.57;2.97;;;11.40;99.90;;;;;;4948768;28;20042;-63
2022/05/08 07:43:45;;;;;;;8.43;3.13;;;11.10;99.90;;;;;;4946690;28;20142;-64
2022/05/08 07:46:11;;;;;;;15.60;3.50;;;11.00;99.90;;;;;;4970341;23;20046;-64
2022/05/08 07:48:37;;;;;;;10.90;3.17;;;11.00;99.90;;;;;;4972610;28;20448;-64
2022/05/08 07:51:03;;;;;;;11.15;3.25;;;11.10;99.90;;;;;;4971075;28;20492;-63
2022/05/08 07:53:30;;;;;;;11.02;3.63;;;11.40;99.90;;;;;;4974686;28;20373;-64
2022/05/08 07:55:56;;;;;;;11.18;3.63;;;11.70;99.90;;;;;;4966638;28;20476;-63
2022/05/08 07:58:22;;;;;;;10.20;4.35;;;11.90;99.90;;;;;;4957411;28;20047;-64
2022/05/08 08:00:56;;;;;;;10.35;3.70;;;12.10;99.90;;;;;;4949162;28;20050;-63
2022/05/08 08:03:23;;;;;;;9.27;3.22;;;12.20;99.90;;;;;;4947320;29;20063;-64
2022/05/08 08:05:49;;;;;;;11.27;3.00;;;12.10;99.90;;;;;;4955864;28;20058;-63
2022/05/08 08:08:17;;;;;;;8.88;3.05;;;12.20;99.90;;;;;;4948162;28;20498;-63
2022/05/08 08:10:42;;;;;;;11.07;3.28;;;12.20;99.90;;;;;;4951339;28;20119;-63
2022/05/08 08:13:08;;;;;;;10.55;3.33;;;12.20;99.90;;;;;;4952659;28;20130;-63
2022/05/08 08:15:34;;;;;;;7.10;2.88;;;12.20;99.90;;;;;;4946082;28;20086;-64
2022/05/08 08:17:59;;;;;;;14.10;3.70;;;12.20;99.90;;;;;;4955388;29;20039;-63
2022/05/08 08:20:25;;;;;;;11.18;3.50;;;12.30;99.90;;;;;;4955950;29;20045;-64
2022/05/08 08:22:51;;;;;;;15.82;3.70;;;12.40;99.90;;;;;;4951235;29;20528;-63
2022/05/08 08:25:16;;;;;;;11.75;3.70;;;12.40;99.90;;;;;;4948025;28;20564;-63
2022/05/08 08:27:42;;;;;;;11.93;3.50;;;12.40;99.90;;;;;;4954426;29;20461;-63
2022/05/08 08:30:08;;;;;;;12.88;3.75;;;12.40;99.90;;;;;;4955068;28;20035;-64
2022/05/08 08:32:33;;;;;;;13.85;3.70;;;12.40;99.90;;;;;;4951596;28;20405;-64
2022/05/08 08:34:59;;;;;;;9.63;3.05;;;12.60;99.90;;;;;;4954126;28;20039;-64
2022/05/08 08:37:25;;;;;;;10.05;3.22;;;12.60;99.90;;;;;;4955290;29;20047;-64
2022/05/08 08:39:50;;;;;;;8.80;3.22;;;12.50;99.90;;;;;;4955308;29;20035;-64
2022/05/08 08:42:27;;;;;;;9.00;3.10;;;12.20;99.90;;;;;;4942711;29;20405;-64
2022/05/08 08:48:08;;;;;;;6.78;3.22;;;12.00;99.90;;;;;;4955571;28;20051;-63
2022/05/08 08:50:35;;;;;;;9.90;3.80;;;12.10;99.90;;;;;;4947565;28;20031;-64
2022/05/08 08:53:05;;;;;;;10.55;3.70;;;12.10;99.90;;;;;;4941164;29;20109;-64
2022/05/08 08:55:32;;;;;;;12.70;3.50;;;12.10;99.90;;;;;;4954955;28;20090;-64
2022/05/08 08:57:58;;;;;;;10.02;3.10;;;12.20;99.90;;;;;;4951100;28;20062;-64
2022/05/08 09:00:23;;;;;;;7.45;3.13;;;12.30;99.90;;;;;;4944751;29;20027;-64
2022/05/08 09:02:54;;;;;;;7.60;2.85;;;12.40;99.90;;;;;;4954690;28;20036;-64
2022/05/08 09:05:22;;;;;;;11.35;3.40;;;12.50;99.90;;;;;;4952376;28;20043;-64
2022/05/08 09:07:54;;;;;;;10.15;3.90;;;12.50;99.90;;;;;;4944438;29;20123;-64
2022/05/08 09:10:26;;;;;;;11.27;4.10;;;12.60;99.90;;;;;;4954721;28;20498;-63
2022/05/08 09:12:52;;;;;;;13.05;4.18;;;12.80;99.90;;;;;;4953430;29;20114;-64
2022/05/08 09:15:19;;;;;;;11.15;3.55;;;12.80;99.90;;;;;;4950616;28;20159;-64
2022/05/08 09:17:47;;;;;;;9.90;4.13;;;13.00;99.90;;;;;;4947018;28;20039;-64
2022/05/08 09:20:31;;;;;;;16.90;4.20;;;13.00;99.90;;;;;;4954798;28;20062;-63
2022/05/08 09:23:07;;;;;;;7.55;3.90;;;13.10;99.90;;;;;;4951899;28;20050;-64
2022/05/08 09:25:55;;;;;;;9.50;4.20;;;13.30;99.90;;;;;;4949725;28;20568;-64
2022/05/08 09:28:36;;;;;;;12.65;3.97;;;13.40;99.90;;;;;;4949361;29;20055;-64
2022/05/08 09:31:10;;;;;;;10.35;3.45;;;13.40;99.90;;;;;;4951257;28;20086;-64
2022/05/08 09:33:45;;;;;;;8.93;3.50;;;13.60;99.90;;;;;;4953165;28;20094;-64
2022/05/08 09:36:24;;;;;;;11.30;4.10;;;13.60;99.90;;;;;;4954620;28;20074;-64
2022/05/08 09:38:55;;;;;;;14.25;4.40;;;13.70;99.90;;;;;;4953557;29;20094;-64
2022/05/08 09:41:26;;;;;;;8.40;3.63;;;13.70;99.90;;;;;;4943119;28;20414;-64
2022/05/08 09:43:54;;;;;;;10.18;3.47;;;13.70;99.90;;;;;;4947615;29;20039;-64
2022/05/08 09:46:21;;;;;;;9.02;3.50;;;13.60;99.90;;;;;;4953146;28;20043;-64
2022/05/08 09:48:47;;;;;;;11.20;3.60;;;13.70;99.90;;;;;;4935841;28;20054;-64
2022/05/08 09:51:17;;;;;;;8.13;2.70;;;13.80;99.90;;;;;;4945348;28;20063;-64
2022/05/08 09:53:44;;;;;;;10.00;3.22;;;13.90;99.90;;;;;;4951597;29;20046;-64
2022/05/08 09:56:12;;;;;;;8.23;2.75;;;13.80;97.90;;;;;;4952874;28;20043;-64
2022/05/08 09:58:40;;;;;;;11.57;3.38;;;13.70;98.40;;;;;;4941324;28;20039;-64
2022/05/08 10:01:07;;;;;;;13.25;3.35;;;13.80;99.90;;;;;;4952822;28;20031;-64
2022/05/08 10:03:33;;;;;;;7.63;3.20;;;14.00;99.90;;;;;;4951940;28;20039;-64
2022/05/08 10:06:00;;;;;;;12.30;3.50;;;14.10;99.80;;;;;;4950097;28;20091;-64
2022/05/08 10:08:33;;;;;;;13.82;4.05;;;14.10;99.60;;;;;;4952521;28;20043;-64
2022/05/08 10:13:53;;;;;;;9.90;2.92;;;14.10;97.40;;;;;;4947528;28;20047;-64
2022/05/08 10:16:50;;;;;;;8.70;2.92;;;14.10;96.90;;;;;;4952004;28;20039;-64
2022/05/08 10:19:24;;;;;;;7.93;2.63;;;14.10;94.60;;;;;;4946447;29;20118;-64
2022/05/08 10:22:09;;;;;;;11.15;3.35;;;14.30;97.00;;;;;;4948251;28;20045;-64
2022/05/08 10:24:38;;;;;;;10.65;3.60;;;14.40;94.30;;;;;;4951763;28;20047;-64
2022/05/08 10:27:35;;;;;;;10.25;3.30;;;14.60;98.20;;;;;;4952362;28;20039;-64
2022/05/08 10:30:04;;;;;;;10.82;3.03;;;14.70;96.10;;;;;;4937428;29;20057;-64
2022/05/08 10:32:32;;;;;;;12.10;3.38;;;14.50;96.70;;;;;;4941146;28;20040;-64
2022/05/08 10:35:13;;;;;;;9.13;2.85;;;14.60;97.40;;;;;;4939032;28;20074;-64
2022/05/08 10:38:16;;;;;;;10.90;3.15;;;14.60;95.40;;;;;;4945378;28;20092;-64
2022/05/08 10:40:42;;;;;;;9.05;3.13;;;14.80;93.10;;;;;;4947819;29;20074;-64
2022/05/08 10:43:10;;;;;;;6.70;2.88;;;15.10;97.80;;;;;;4950370;29;20090;-64
2022/05/08 10:45:40;;;;;;;10.82;3.15;;;15.20;96.30;;;;;;4906498;29;1056187;-64
2022/05/08 10:48:21;;;;;;;8.30;2.95;;;15.30;97.70;;;;;;4938168;29;20043;-64
2022/05/08 10:50:49;;;;;;;9.55;3.33;;;15.50;95.80;;;;;;4952800;28;20047;-64
2022/05/08 10:53:22;;;;;;;9.63;3.90;;;15.70;96.60;;;;;;4945236;28;20039;-64
2022/05/08 10:55:48;;;;;;;8.85;2.80;;;15.80;93.70;;;;;;4931986;29;20134;-64
2022/05/08 10:58:13;;;;;;;9.68;2.60;;;15.70;95.30;;;;;;4952989;28;20122;-64
2022/05/08 11:00:39;;;;;;;11.93;2.72;;;15.80;95.70;;;;;;4952683;28;20097;-64
2022/05/08 11:03:05;;;;;;;8.88;2.80;;;15.90;95.90;;;;;;4947679;29;20042;-64
2022/05/08 11:05:33;;;;;;;9.23;2.72;;;16.00;96.20;;;;;;4944704;28;20055;-64
2022/05/08 11:08:00;;;;;;;8.70;2.53;;;16.10;96.70;;;;;;4953816;28;20031;-64
2022/05/08 11:10:31;;;;;;;10.52;3.42;;;16.30;95.80;;;;;;4942428;28;20039;-64
2022/05/08 11:13:04;;;;;;;12.50;2.72;;;16.30;94.50;;;;;;4949628;29;20071;-64
2022/05/08 11:15:35;;;;;;;11.80;3.05;;;16.30;92.70;;;;;;4953372;28;20043;-64
2022/05/08 11:18:18;;;;;;;7.63;2.83;;;16.30;94.30;;;;;;4953533;28;20055;-65
2022/05/08 11:20:55;;;;;;;9.98;3.15;;;16.10;93.50;;;;;;4937593;28;20035;-65
2022/05/08 11:23:25;;;;;;;8.80;2.92;;;16.20;95.50;;;;;;4944143;28;20561;-64
2022/05/08 11:25:53;;;;;;;11.77;2.97;;;16.40;93.80;;;;;;4949007;28;20415;-64
2022/05/08 11:28:22;;;;;;;8.85;3.10;;;16.50;95.80;;;;;;4945042;28;20505;-64
2022/05/08 11:30:48;;;;;;;9.80;2.78;;;16.60;94.40;;;;;;4949309;28;20517;-64
2022/05/08 11:36:04;;;;;;;9.02;3.10;;;16.40;93.60;;;;;;4949852;28;20151;-61
2022/05/08 11:38:50;;;;;;;8.52;3.17;;;16.60;94.10;;;;;;4933316;28;20722;-61
2022/05/08 11:41:21;;;;;;;10.75;2.60;;;17.00;90.50;;;;;;4943656;29;20039;-61
2022/05/08 11:43:48;;;;;;;7.43;2.67;;;17.10;90.50;;;;;;4941283;28;20035;-61
2022/05/08 11:46:16;;;;;;;7.63;2.38;;;16.90;70.80;;;;;;4941606;28;20051;-61
2022/05/08 11:48:43;;;;;;;12.60;3.08;;;16.60;69.70;;;;;;4946971;29;20053;-61
2022/05/08 11:51:10;;;;;;;10.90;2.80;;;16.60;71.80;;;;;;4949934;28;20039;-61
2022/05/08 11:53:39;;;;;;;6.30;2.55;;;16.50;88.40;;;;;;4942362;28;20493;-61
2022/05/08 11:56:32;;;;;;;7.15;2.38;;;16.70;79.90;;;;;;4948091;28;20053;-61
2022/05/08 11:58:59;;;;;;;6.43;2.45;;;17.00;68.10;;;;;;4949349;28;20517;-62
2022/05/08 12:01:35;;;;;;;14.65;2.75;;;17.20;92.90;;;;;;4944499;28;20043;-62
2022/05/08 12:04:24;;;;;;;11.65;2.92;;;17.20;85.70;;;;;;4948402;28;20105;-62
2022/05/08 12:06:58;;;;;;;9.43;2.83;;;17.40;69.40;;;;;;4949380;28;20054;-61
2022/05/08 12:09:25;;;;;;;6.20;2.30;;;17.50;86.20;;;;;;4941238;28;20050;-61
2022/05/08 12:11:51;;;;;;;5.93;2.33;;;17.50;78.60;;;;;;4934719;29;20044;-63
2022/05/08 12:14:28;;;;;;;9.27;2.60;;;17.30;78.60;;;;;;4947472;28;20796;-64
2022/05/08 12:17:02;;;;;;;8.85;2.78;;;17.10;70.40;;;;;;4941854;28;20142;-64
2022/05/08 12:19:28;;;;;;;10.40;2.90;;;17.10;60.40;;;;;;4949650;29;20093;-64
2022/05/08 12:21:54;;;;;;;9.15;2.50;;;17.20;76.70;;;;;;4937127;28;20051;-64
2022/05/08 12:24:21;;;;;;;12.48;2.92;;;17.60;86.70;;;;;;4948299;28;20114;-64
2022/05/08 12:26:47;;;;;;;9.52;3.03;;;17.90;86.10;;;;;;4950874;28;20059;-62
2022/05/08 12:29:21;;;;;;;7.07;3.00;;;18.00;83.60;;;;;;4937493;28;20032;-62
2022/05/08 12:31:50;;;;;;;8.48;2.83;;;18.20;75.90;;;;;;4943108;29;20050;-62
2022/05/08 12:34:20;;;;;;;13.30;3.10;;;18.30;73.60;;;;;;4945272;28;20036;-62
2022/05/08 12:36:45;;;;;;;8.40;2.88;;;18.40;74.00;;;;;;4951027;28;20047;-62
2022/05/08 12:39:11;;;;;;;9.95;2.67;;;18.40;77.90;;;;;;4955477;28;20043;-62
2022/05/08 12:41:37;;;;;;;10.40;3.22;;;18.40;76.00;;;;;;4956837;28;20490;-62
2022/05/08 12:44:04;;;;;;;10.32;2.65;;;18.70;79.90;;;;;;4951146;28;20093;-61
2022/05/08 12:46:31;;;;;;;10.13;2.92;;;18.60;68.20;;;;;;4954228;28;20046;-62
2022/05/08 12:49:02;;;;;;;11.73;2.95;;;18.60;73.20;;;;;;4956109;28;20058;-62
2022/05/08 12:51:29;;;;;;;9.45;3.10;;;18.40;67.20;;;;;;4949948;29;20051;-62
2022/05/08 12:53:55;;;;;;;16.20;3.33;;;18.30;61.40;;;;;;4955232;28;20058;-62
2022/05/08 12:56:21;;;;;;;6.45;2.45;;;18.50;68.20;;;;;;4956021;28;20039;-62
2022/05/08 13:01:30;;;;;;;8.10;2.60;;;18.20;57.20;;;;;;4944115;28;20410;-62
2022/05/08 13:03:56;;;;;;;6.80;2.05;;;18.40;60.00;;;;;;4954939;29;20039;-62
2022/05/08 13:06:21;;;;;;;10.68;2.97;;;18.30;58.70;;;;;;4955461;28;20039;-62
2022/05/08 13:08:47;;;;;;;7.75;2.67;;;18.20;61.00;;;;;;4952007;28;20038;-62